Time;durP1;ratioP1;P1;durP2;ratioP2;P2;SDS_P1;SDS_P2;PMS_P1;PMS_P2;Temp;Humidity;BMP_temperature;BMP_pressure;BME280_temperature;BME280_humidity;BME280_pressure;Samples;Min_cycle;Max_cycle;Signal;HPM_P1;HPM_P2
2021/01/24 00:01:42;;;;;;;16.35;6.65;;;2.60;99.90;;;;;;4978718;28;20054;-78
2021/01/24 00:04:09;;;;;;;14.95;6.10;;;2.50;99.90;;;;;;4984875;28;20057;-78
2021/01/24 00:06:35;;;;;;;14.57;6.43;;;2.50;99.90;;;;;;4980246;28;20152;-77
2021/01/24 00:09:02;;;;;;;20.55;7.00;;;2.50;99.90;;;;;;4983666;28;20110;-78
2021/01/24 00:11:28;;;;;;;17.33;7.32;;;2.50;99.90;;;;;;4978944;28;20050;-78
2021/01/24 00:13:54;;;;;;;13.55;6.78;;;2.50;99.90;;;;;;4982147;28;20054;-78
2021/01/24 00:16:21;;;;;;;19.05;7.00;;;2.50;99.90;;;;;;4986497;28;20061;-78
2021/01/24 00:18:47;;;;;;;15.82;6.55;;;2.40;99.90;;;;;;4986468;28;20046;-78
2021/01/24 00:21:13;;;;;;;20.25;7.10;;;2.40;99.90;;;;;;4979438;28;20105;-78
2021/01/24 00:23:39;;;;;;;13.70;6.53;;;2.40;99.90;;;;;;4984879;28;20049;-78
2021/01/24 00:26:07;;;;;;;17.77;7.35;;;2.40;99.90;;;;;;4980748;28;20046;-78
2021/01/24 00:28:33;;;;;;;17.50;6.85;;;2.40;99.90;;;;;;4976426;28;20046;-78
2021/01/24 00:31:02;;;;;;;13.75;7.03;;;2.40;99.90;;;;;;4970300;28;20046;-78
2021/01/24 00:33:29;;;;;;;18.08;7.95;;;2.30;99.90;;;;;;4984176;28;20050;-78
2021/01/24 00:35:55;;;;;;;14.75;6.07;;;2.40;99.90;;;;;;4979075;28;20049;-77
2021/01/24 00:38:22;;;;;;;18.60;7.18;;;2.30;99.90;;;;;;4982831;28;20066;-78
2021/01/24 00:40:48;;;;;;;14.05;6.65;;;2.30;99.90;;;;;;4981713;28;20122;-78
2021/01/24 00:43:14;;;;;;;23.10;8.32;;;2.30;99.90;;;;;;4979644;28;20124;-78
2021/01/24 00:45:40;;;;;;;18.58;8.00;;;2.30;99.90;;;;;;4978840;28;20054;-77
2021/01/24 00:48:06;;;;;;;17.15;7.65;;;2.30;99.90;;;;;;4981145;28;20106;-78
2021/01/24 00:50:33;;;;;;;15.32;7.47;;;2.30;99.90;;;;;;4977920;28;20054;-78
2021/01/24 00:52:59;;;;;;;21.55;7.32;;;2.30;99.90;;;;;;4984245;28;20053;-78
2021/01/24 00:55:25;;;;;;;15.68;7.40;;;2.30;99.90;;;;;;4979541;28;20050;-78
2021/01/24 00:57:51;;;;;;;20.52;7.85;;;2.20;99.90;;;;;;4988371;28;20399;-78
2021/01/24 01:00:18;;;;;;;19.85;7.20;;;2.20;99.90;;;;;;4971589;28;20092;-78
2021/01/24 01:02:45;;;;;;;15.30;6.80;;;2.20;99.90;;;;;;4982663;28;20363;-78
2021/01/24 01:05:11;;;;;;;17.45;6.88;;;2.20;99.90;;;;;;4992413;28;20104;-78
2021/01/24 01:07:37;;;;;;;16.25;6.78;;;2.20;99.90;;;;;;4984223;28;20133;-78
2021/01/24 01:10:04;;;;;;;14.80;7.00;;;2.20;99.90;;;;;;4987587;28;20054;-78
2021/01/24 01:12:31;;;;;;;16.17;8.32;;;2.20;99.90;;;;;;4983046;28;20060;-78
2021/01/24 01:14:57;;;;;;;17.75;7.20;;;2.20;99.90;;;;;;4986964;28;20541;-78
2021/01/24 01:17:23;;;;;;;23.98;8.55;;;2.10;99.90;;;;;;4987164;28;20070;-78
2021/01/24 01:19:50;;;;;;;20.27;8.05;;;2.10;99.90;;;;;;4983112;28;20413;-78
2021/01/24 01:22:16;;;;;;;19.42;7.60;;;2.10;99.90;;;;;;4986398;28;20147;-77
2021/01/24 01:24:42;;;;;;;20.15;8.95;;;2.10;99.90;;;;;;4986560;28;20052;-78
2021/01/24 01:27:08;;;;;;;15.65;7.78;;;2.10;99.90;;;;;;4990448;28;20042;-78
2021/01/24 01:29:34;;;;;;;17.17;7.68;;;2.10;99.90;;;;;;4980581;28;20193;-78
2021/01/24 01:32:01;;;;;;;19.92;8.07;;;2.10;99.90;;;;;;4986420;28;20074;-78
2021/01/24 01:34:27;;;;;;;19.20;7.10;;;2.10;99.90;;;;;;4986988;28;21550;-78
2021/01/24 01:36:53;;;;;;;17.08;7.40;;;2.10;99.90;;;;;;4981866;28;20058;-78
2021/01/24 01:39:20;;;;;;;23.02;7.78;;;2.10;99.90;;;;;;4985643;28;20592;-78
2021/01/24 01:41:46;;;;;;;23.02;8.73;;;2.10;99.90;;;;;;4985654;28;20096;-78
2021/01/24 01:44:12;;;;;;;18.02;8.05;;;2.10;99.90;;;;;;4986131;28;20051;-78
2021/01/24 01:46:40;;;;;;;14.80;7.68;;;2.10;99.90;;;;;;4985599;28;20046;-78
2021/01/24 01:49:07;;;;;;;18.40;8.07;;;2.00;99.90;;;;;;4981857;28;20050;-78
2021/01/24 01:51:33;;;;;;;19.63;8.48;;;2.10;99.90;;;;;;4983134;28;20082;-78
2021/01/24 01:53:59;;;;;;;21.05;8.20;;;2.10;99.90;;;;;;4987025;28;20049;-78
2021/01/24 01:56:25;;;;;;;23.58;8.27;;;2.10;99.90;;;;;;4980208;28;20058;-78
2021/01/24 01:58:52;;;;;;;21.58;8.50;;;2.00;99.90;;;;;;4974614;28;20046;-78
2021/01/24 02:01:24;;;;;;;17.75;8.63;;;2.00;99.90;;;;;;4980949;28;20422;-78
2021/01/24 02:04:06;;;;;;;19.58;9.07;;;2.00;99.90;;;;;;5002326;28;20057;-78
2021/01/24 02:06:41;;;;;;;17.20;7.93;;;2.00;99.90;;;;;;4969470;28;20042;-78
2021/01/24 02:09:24;;;;;;;16.40;8.52;;;2.00;99.90;;;;;;4987206;28;20050;-78
2021/01/24 02:12:20;;;;;;;16.98;8.48;;;2.00;99.90;;;;;;4982919;28;20490;-78
2021/01/24 02:15:05;;;;;;;19.30;8.75;;;2.00;99.90;;;;;;4978994;28;20133;-78
2021/01/24 02:17:36;;;;;;;18.45;8.65;;;2.00;99.90;;;;;;4982179;28;20046;-77
2021/01/24 02:20:09;;;;;;;18.45;8.13;;;1.90;99.90;;;;;;4986621;28;20047;-78
2021/01/24 02:22:39;;;;;;;20.95;8.05;;;1.90;99.90;;;;;;4980527;28;20045;-77
2021/01/24 02:25:11;;;;;;;15.30;7.40;;;1.90;99.90;;;;;;4995742;28;20417;-77
2021/01/24 02:28:12;;;;;;;22.00;8.65;;;1.90;99.90;;;;;;4981534;28;20409;-78
2021/01/24 02:30:39;;;;;;;23.15;8.10;;;1.90;99.90;;;;;;4979435;28;20137;-77
2021/01/24 02:33:15;;;;;;;15.65;7.65;;;1.90;99.90;;;;;;4984055;28;22069;-78
2021/01/24 02:35:46;;;;;;;25.13;8.68;;;1.80;99.90;;;;;;4981907;28;20142;-78
2021/01/24 02:38:13;;;;;;;19.25;8.13;;;1.80;99.90;;;;;;4980314;28;20050;-77
2021/01/24 02:40:41;;;;;;;18.83;8.82;;;1.80;99.90;;;;;;4985398;28;20053;-78
2021/01/24 02:43:09;;;;;;;23.27;8.80;;;1.70;99.90;;;;;;4982143;28;20054;-78
2021/01/24 02:45:41;;;;;;;26.83;9.35;;;1.70;99.90;;;;;;4984563;28;20164;-78
2021/01/24 02:48:09;;;;;;;23.17;8.50;;;1.70;99.90;;;;;;4987761;28;20054;-79
2021/01/24 02:50:35;;;;;;;18.75;8.38;;;1.70;99.90;;;;;;4983388;28;20114;-79
2021/01/24 02:53:04;;;;;;;21.92;8.32;;;1.70;99.90;;;;;;4984069;28;20050;-78
2021/01/24 02:55:31;;;;;;;23.95;8.57;;;1.60;99.90;;;;;;4982859;28;20276;-79
2021/01/24 02:57:57;;;;;;;21.48;8.05;;;1.60;99.90;;;;;;4983379;28;20054;-79
2021/01/24 03:00:24;;;;;;;24.48;8.35;;;1.60;99.90;;;;;;4983007;28;20473;-79
2021/01/24 03:02:51;;;;;;;24.42;9.10;;;1.60;99.90;;;;;;4985608;28;20190;-79
2021/01/24 03:05:18;;;;;;;20.77;9.32;;;1.60;99.90;;;;;;4984260;28;20061;-78
2021/01/24 03:07:45;;;;;;;19.58;9.85;;;1.60;99.90;;;;;;4985964;28;20607;-79
2021/01/24 03:10:12;;;;;;;21.80;9.70;;;1.60;99.90;;;;;;4982552;28;20064;-79
2021/01/24 03:13:00;;;;;;;24.80;9.40;;;1.60;99.90;;;;;;4984418;28;20081;-79
2021/01/24 03:15:27;;;;;;;22.08;9.30;;;1.60;99.90;;;;;;4979845;28;20046;-79
2021/01/24 03:17:55;;;;;;;27.00;10.00;;;1.60;99.90;;;;;;4979405;28;20059;-78
2021/01/24 03:20:22;;;;;;;21.67;8.65;;;1.70;99.90;;;;;;4997677;28;20466;-78
2021/01/24 03:22:51;;;;;;;29.85;9.95;;;1.70;99.90;;;;;;4985399;28;20054;-79
2021/01/24 03:25:18;;;;;;;26.30;9.00;;;1.80;99.90;;;;;;4983086;28;20619;-79
2021/01/24 03:27:45;;;;;;;21.42;10.05;;;1.80;99.90;;;;;;4981153;28;21035;-78
2021/01/24 03:30:12;;;;;;;22.92;9.02;;;1.80;99.90;;;;;;4984096;28;20392;-78
2021/01/24 03:32:39;;;;;;;20.73;9.35;;;1.90;99.90;;;;;;4974412;28;20074;-78
2021/01/24 03:35:06;;;;;;;21.67;9.38;;;1.90;99.90;;;;;;4984890;28;20458;-78
2021/01/24 03:37:33;;;;;;;21.80;8.50;;;1.90;99.90;;;;;;4974713;28;20458;-77
2021/01/24 03:39:59;;;;;;;18.27;7.63;;;1.90;99.90;;;;;;4977512;28;20057;-78
2021/01/24 03:42:28;;;;;;;20.75;8.57;;;1.90;99.90;;;;;;4979829;28;21078;-77
2021/01/24 03:44:54;;;;;;;19.17;8.93;;;1.90;99.90;;;;;;4976018;28;20050;-77
2021/01/24 03:47:20;;;;;;;21.63;8.30;;;1.90;99.90;;;;;;4977889;28;20054;-77
2021/01/24 03:49:47;;;;;;;19.25;7.82;;;1.90;99.90;;;;;;4978867;28;20136;-77
2021/01/24 03:52:13;;;;;;;16.38;6.70;;;2.00;99.90;;;;;;4976595;28;20503;-78
2021/01/24 03:54:39;;;;;;;15.90;6.88;;;2.00;99.90;;;;;;4969897;28;20132;-78
2021/01/24 03:57:09;;;;;;;19.02;7.05;;;2.00;99.90;;;;;;4975707;28;20558;-78
2021/01/24 03:59:35;;;;;;;16.45;7.00;;;2.00;99.90;;;;;;4974318;28;20566;-78
2021/01/24 04:02:01;;;;;;;15.18;6.25;;;2.00;99.90;;;;;;4971901;28;20387;-77
2021/01/24 04:04:28;;;;;;;10.27;5.80;;;2.00;99.90;;;;;;4971595;28;20142;-77
2021/01/24 04:06:54;;;;;;;13.98;5.47;;;1.90;99.90;;;;;;4974129;28;20405;-78
2021/01/24 04:09:20;;;;;;;12.75;5.03;;;1.90;99.90;;;;;;4974251;28;20060;-78
2021/01/24 04:11:46;;;;;;;11.32;5.45;;;1.90;99.90;;;;;;4980251;28;20056;-77
2021/01/24 04:14:13;;;;;;;11.98;4.93;;;1.90;99.90;;;;;;4971857;28;21059;-77
2021/01/24 04:16:39;;;;;;;12.35;5.20;;;1.90;99.90;;;;;;4977059;28;20057;-77
2021/01/24 04:19:06;;;;;;;13.05;5.50;;;1.90;99.90;;;;;;4969719;28;20050;-77
2021/01/24 04:21:32;;;;;;;10.27;4.80;;;1.90;99.90;;;;;;4978478;28;20568;-77
2021/01/24 04:23:58;;;;;;;10.70;4.88;;;1.80;99.90;;;;;;4974911;28;20050;-77
2021/01/24 04:26:24;;;;;;;11.20;4.25;;;1.80;99.90;;;;;;4971795;28;20394;-77
2021/01/24 04:28:50;;;;;;;11.77;4.80;;;1.90;99.90;;;;;;4976623;28;20050;-77
2021/01/24 04:31:16;;;;;;;14.10;4.55;;;1.80;99.90;;;;;;4976424;28;20061;-77
2021/01/24 04:33:43;;;;;;;8.20;3.97;;;1.90;99.90;;;;;;4980346;28;20128;-78
2021/01/24 04:36:09;;;;;;;13.07;4.05;;;2.00;99.90;;;;;;4979017;28;20157;-77
2021/01/24 04:38:35;;;;;;;14.95;4.13;;;2.00;99.90;;;;;;4982740;28;20149;-78
2021/01/24 04:41:02;;;;;;;8.82;3.75;;;2.10;99.90;;;;;;4980091;28;20518;-78
2021/01/24 04:43:28;;;;;;;8.18;4.20;;;2.10;99.90;;;;;;4988762;28;20050;-78
2021/01/24 04:45:58;;;;;;;12.80;3.80;;;2.10;99.90;;;;;;5004680;28;20114;-78
2021/01/24 04:48:24;;;;;;;11.85;3.80;;;2.10;99.90;;;;;;4985456;28;20056;-79
2021/01/24 04:50:51;;;;;;;13.13;3.53;;;2.10;99.90;;;;;;4989388;28;20050;-79
2021/01/24 04:53:18;;;;;;;9.07;3.55;;;2.20;99.90;;;;;;4984352;28;20118;-78
2021/01/24 04:55:44;;;;;;;10.68;3.63;;;2.20;99.90;;;;;;4986838;28;20507;-78
2021/01/24 04:58:11;;;;;;;9.23;4.22;;;2.20;99.90;;;;;;4985671;28;20061;-79
2021/01/24 05:00:37;;;;;;;9.07;3.53;;;2.20;99.90;;;;;;4986201;28;20058;-79
2021/01/24 05:03:04;;;;;;;9.57;3.65;;;2.20;99.90;;;;;;4966429;28;20070;-78
2021/01/24 05:05:30;;;;;;;11.90;3.88;;;2.30;99.90;;;;;;4986671;28;20557;-79
2021/01/24 05:07:58;;;;;;;7.30;3.00;;;2.20;99.90;;;;;;4984237;28;20057;-78
2021/01/24 05:10:26;;;;;;;7.32;3.40;;;2.20;99.90;;;;;;4986542;28;20058;-78
2021/01/24 05:12:54;;;;;;;7.13;3.20;;;2.20;99.90;;;;;;4985094;28;20039;-79
2021/01/24 05:15:21;;;;;;;8.20;3.75;;;2.20;99.90;;;;;;4987139;28;20061;-79
2021/01/24 05:17:51;;;;;;;8.25;3.10;;;2.10;99.90;;;;;;4979282;28;20062;-79
2021/01/24 05:20:21;;;;;;;5.43;2.88;;;2.10;99.90;;;;;;4989598;28;20092;-78
2021/01/24 05:22:47;;;;;;;8.63;3.53;;;2.10;99.90;;;;;;4985219;28;20050;-79
2021/01/24 05:25:17;;;;;;;12.05;4.25;;;2.10;99.90;;;;;;4991155;28;20054;-78
2021/01/24 05:27:43;;;;;;;12.80;3.75;;;2.10;99.90;;;;;;4986203;28;20050;-78
2021/01/24 05:30:13;;;;;;;9.95;3.40;;;2.20;99.90;;;;;;4989282;28;20421;-78
2021/01/24 05:32:43;;;;;;;7.85;4.40;;;2.20;99.90;;;;;;4983970;28;20050;-78
2021/01/24 05:35:13;;;;;;;8.70;3.85;;;2.20;99.90;;;;;;4984138;28;20057;-78
2021/01/24 05:37:45;;;;;;;10.18;3.35;;;2.30;99.90;;;;;;4986824;28;20055;-79
2021/01/24 05:40:11;;;;;;;7.03;3.38;;;2.30;99.90;;;;;;4985706;28;20055;-78
2021/01/24 05:42:38;;;;;;;6.28;3.10;;;2.30;99.90;;;;;;4986642;28;20061;-79
2021/01/24 05:45:18;;;;;;;10.18;3.42;;;2.40;99.90;;;;;;4984410;28;20787;-78
2021/01/24 05:47:45;;;;;;;6.43;3.28;;;2.40;99.90;;;;;;4986229;28;20113;-78
2021/01/24 05:50:16;;;;;;;6.60;3.35;;;2.40;99.90;;;;;;4988931;28;20058;-78
2021/01/24 05:52:47;;;;;;;10.30;3.03;;;2.30;99.90;;;;;;4988465;28;20054;-78
2021/01/24 05:55:34;;;;;;;7.25;2.72;;;2.30;99.90;;;;;;4986443;28;20065;-78
2021/01/24 05:58:15;;;;;;;5.30;2.80;;;2.20;99.90;;;;;;4987275;28;20047;-79
2021/01/24 06:00:44;;;;;;;4.75;2.33;;;2.10;99.90;;;;;;4988142;28;20046;-79
2021/01/24 06:03:11;;;;;;;3.78;2.25;;;2.00;99.90;;;;;;4985460;28;20381;-79
2021/01/24 06:05:38;;;;;;;7.68;2.53;;;2.00;99.90;;;;;;4998410;28;20046;-78
2021/01/24 06:08:09;;;;;;;13.43;2.65;;;1.90;99.90;;;;;;4980851;28;20426;-78
2021/01/24 06:10:36;;;;;;;6.55;2.40;;;1.80;99.90;;;;;;4984738;28;20054;-78
2021/01/24 06:13:04;;;;;;;6.30;3.00;;;1.70;99.90;;;;;;4981533;28;20046;-78
2021/01/24 06:15:31;;;;;;;4.78;2.25;;;1.60;99.90;;;;;;4977034;28;20054;-79
2021/01/24 06:18:06;;;;;;;9.43;2.63;;;1.60;99.90;;;;;;4983179;28;20062;-78
2021/01/24 06:20:43;;;;;;;9.30;2.47;;;1.50;99.90;;;;;;4986519;28;20056;-78
2021/01/24 06:23:36;;;;;;;7.85;2.97;;;1.40;99.90;;;;;;4987854;28;20058;-78
2021/01/24 06:26:07;;;;;;;5.75;2.00;;;1.40;99.90;;;;;;4981366;28;20393;-78
2021/01/24 06:28:37;;;;;;;5.53;1.95;;;1.30;99.90;;;;;;4977653;28;20064;-79
2021/01/24 06:31:10;;;;;;;2.88;1.30;;;1.30;99.90;;;;;;4977594;28;20062;-78
2021/01/24 06:33:38;;;;;;;7.13;1.70;;;1.20;99.90;;;;;;4977162;28;20058;-78
2021/01/24 06:36:05;;;;;;;4.53;1.05;;;1.20;99.90;;;;;;4968955;28;20150;-79
2021/01/24 06:38:38;;;;;;;2.70;1.10;;;1.20;99.90;;;;;;4974238;28;21573;-78
2021/01/24 06:41:09;;;;;;;6.20;1.30;;;1.20;99.90;;;;;;4975053;28;20122;-78
2021/01/24 06:43:41;;;;;;;1.73;1.05;;;1.20;99.90;;;;;;4979311;28;21373;-78
2021/01/24 06:46:29;;;;;;;4.03;1.02;;;1.20;99.90;;;;;;4981018;28;20097;-78
2021/01/24 06:48:56;;;;;;;2.47;0.90;;;1.10;99.90;;;;;;4975722;28;20054;-77
2021/01/24 06:51:37;;;;;;;7.50;1.40;;;1.10;99.90;;;;;;4975305;28;20065;-78
2021/01/24 06:54:14;;;;;;;5.25;1.58;;;1.10;99.90;;;;;;4977901;28;20129;-78
2021/01/24 06:56:42;;;;;;;6.18;1.55;;;1.10;99.90;;;;;;4972277;28;20153;-78
2021/01/24 06:59:09;;;;;;;2.28;0.68;;;1.00;99.90;;;;;;4982677;28;20046;-78
2021/01/24 07:01:40;;;;;;;1.40;0.63;;;1.00;99.90;;;;;;4980153;28;20546;-78
2021/01/24 07:04:24;;;;;;;7.55;0.73;;;1.00;99.90;;;;;;4972989;28;20414;-78
2021/01/24 07:06:55;;;;;;;2.78;0.70;;;1.00;99.90;;;;;;4973554;28;20169;-78
2021/01/24 07:09:27;;;;;;;5.07;0.80;;;0.90;99.90;;;;;;4977421;28;20064;-77
2021/01/24 07:12:02;;;;;;;2.78;0.40;;;0.90;99.90;;;;;;4978510;28;20104;-78
2021/01/24 07:14:34;;;;;;;7.10;0.70;;;0.90;99.90;;;;;;4978126;28;20137;-77
2021/01/24 07:17:07;;;;;;;4.60;0.90;;;0.90;99.90;;;;;;4985120;28;20085;-78
2021/01/24 07:19:49;;;;;;;5.13;0.75;;;0.80;99.90;;;;;;4968236;28;20042;-78
2021/01/24 07:22:20;;;;;;;3.42;2.13;;;0.90;99.90;;;;;;4978357;28;20050;-78
2021/01/24 07:24:48;;;;;;;3.78;0.80;;;0.80;99.90;;;;;;4965407;28;20193;-78
2021/01/24 07:27:17;;;;;;;1.40;0.68;;;0.80;99.90;;;;;;4973083;28;20054;-78
2021/01/24 07:29:43;;;;;;;4.63;1.30;;;0.80;99.90;;;;;;5000404;28;20056;-79
2021/01/24 07:32:14;;;;;;;2.53;0.70;;;0.80;99.90;;;;;;4984666;28;20129;-79
2021/01/24 07:34:43;;;;;;;6.10;2.00;;;0.80;99.90;;;;;;4985553;28;20088;-78
2021/01/24 07:37:10;;;;;;;4.43;1.90;;;0.80;99.90;;;;;;4977013;28;20050;-78
2021/01/24 07:39:37;;;;;;;8.45;1.25;;;0.70;99.90;;;;;;4969639;28;20049;-78
2021/01/24 07:42:04;;;;;;;5.22;1.08;;;0.70;99.90;;;;;;4974112;28;20457;-77
2021/01/24 07:44:30;;;;;;;3.72;1.42;;;0.70;99.90;;;;;;4952807;28;20050;-80
2021/01/24 07:46:58;;;;;;;4.90;1.02;;;0.70;99.90;;;;;;4978890;28;20425;-77
2021/01/24 07:49:24;;;;;;;8.75;2.58;;;0.70;99.90;;;;;;4980567;28;20137;-77
2021/01/24 07:51:51;;;;;;;6.45;1.88;;;0.70;99.90;;;;;;4980479;28;20053;-78
2021/01/24 07:54:18;;;;;;;2.63;0.82;;;0.70;99.90;;;;;;4993816;28;20054;-79
2021/01/24 07:56:45;;;;;;;3.67;0.95;;;0.70;99.90;;;;;;4970406;28;20043;-78
2021/01/24 07:59:12;;;;;;;3.33;0.82;;;0.70;99.90;;;;;;4980319;28;20043;-78
2021/01/24 08:01:39;;;;;;;3.58;0.82;;;0.70;99.90;;;;;;4975100;28;20524;-77
2021/01/24 08:04:06;;;;;;;3.25;0.93;;;0.70;99.90;;;;;;4977409;28;20050;-77
2021/01/24 08:06:33;;;;;;;3.58;1.10;;;0.70;99.90;;;;;;4979095;28;20061;-77
2021/01/24 08:09:00;;;;;;;8.52;3.10;;;0.80;99.90;;;;;;4946845;28;20537;-76
2021/01/24 08:11:28;;;;;;;13.13;2.15;;;0.80;99.90;;;;;;4974775;28;20509;-77
2021/01/24 08:13:55;;;;;;;4.15;1.20;;;0.80;99.90;;;;;;4977616;28;20062;-77
2021/01/24 08:16:33;;;;;;;2.45;0.80;;;0.80;99.90;;;;;;4975726;28;20058;-77
2021/01/24 08:19:02;;;;;;;3.97;1.20;;;0.90;99.90;;;;;;4977536;28;20077;-77
2021/01/24 08:21:28;;;;;;;4.68;0.77;;;0.90;99.90;;;;;;4993592;28;20100;-78
2021/01/24 08:23:55;;;;;;;5.93;1.30;;;0.90;99.90;;;;;;4974409;28;20068;-78
2021/01/24 08:26:23;;;;;;;1.95;1.05;;;0.90;99.90;;;;;;4977240;28;20050;-78
2021/01/24 08:28:52;;;;;;;2.95;0.98;;;0.90;99.90;;;;;;4991181;28;20053;-76
2021/01/24 08:31:19;;;;;;;3.88;1.00;;;0.90;99.90;;;;;;4973146;28;20050;-76
2021/01/24 08:33:48;;;;;;;1.95;1.35;;;0.90;99.90;;;;;;4977362;28;20082;-76
2021/01/24 08:36:26;;;;;;;7.32;1.00;;;0.90;99.90;;;;;;4977538;28;20058;-77
2021/01/24 08:38:56;;;;;;;2.90;1.88;;;0.90;99.90;;;;;;4978363;28;20050;-77
2021/01/24 08:41:36;;;;;;;3.55;1.30;;;1.00;99.90;;;;;;4981568;28;20153;-77
2021/01/24 08:44:12;;;;;;;3.22;1.70;;;1.00;99.90;;;;;;4978333;28;20046;-77
2021/01/24 08:46:44;;;;;;;4.10;1.30;;;1.10;99.90;;;;;;4980804;28;20062;-77
2021/01/24 08:49:13;;;;;;;3.22;1.27;;;1.20;99.90;;;;;;4977768;28;20096;-78
2021/01/24 08:51:59;;;;;;;4.53;1.25;;;1.30;99.90;;;;;;4981025;28;20077;-76
2021/01/24 08:54:36;;;;;;;2.38;1.17;;;1.40;99.90;;;;;;4979369;28;20051;-77
2021/01/24 08:57:11;;;;;;;4.22;1.58;;;1.50;99.90;;;;;;4996482;28;20715;-77
2021/01/24 08:59:49;;;;;;;3.10;1.20;;;1.50;99.90;;;;;;4979981;28;20621;-77
2021/01/24 09:02:39;;;;;;;10.68;3.05;;;1.60;99.90;;;;;;4974054;28;20066;-77
2021/01/24 09:05:29;;;;;;;5.45;2.10;;;1.60;99.90;;;;;;4973736;28;20050;-77
2021/01/24 09:07:55;;;;;;;6.32;1.10;;;1.70;99.90;;;;;;4978168;28;20133;-78
2021/01/24 09:10:23;;;;;;;5.38;2.00;;;1.70;99.90;;;;;;4972750;28;20098;-78
2021/01/24 09:12:52;;;;;;;3.20;1.20;;;1.80;99.90;;;;;;4980711;28;20068;-77
2021/01/24 09:15:20;;;;;;;3.42;1.08;;;1.90;99.90;;;;;;4982714;28;20407;-78
2021/01/24 09:17:48;;;;;;;3.30;1.20;;;2.00;99.90;;;;;;4980828;28;20065;-79
2021/01/24 09:20:15;;;;;;;2.22;0.85;;;2.10;99.90;;;;;;4984412;28;20050;-77
2021/01/24 09:22:44;;;;;;;3.50;1.25;;;2.10;99.90;;;;;;4982390;28;20177;-77
2021/01/24 09:25:11;;;;;;;6.35;1.20;;;2.20;99.90;;;;;;4978318;28;20053;-78
2021/01/24 09:27:38;;;;;;;3.53;1.08;;;2.30;99.90;;;;;;4979775;28;20064;-78
2021/01/24 09:30:07;;;;;;;2.20;1.20;;;2.40;99.90;;;;;;4980537;28;20546;-78
2021/01/24 09:32:33;;;;;;;2.55;1.10;;;2.50;99.90;;;;;;4981986;28;20133;-77
2021/01/24 09:34:59;;;;;;;3.50;1.10;;;2.60;99.90;;;;;;4983219;28;20093;-78
2021/01/24 09:37:25;;;;;;;4.25;1.75;;;2.70;99.90;;;;;;4983503;28;20058;-78
2021/01/24 09:39:52;;;;;;;1.52;1.00;;;2.80;99.90;;;;;;4982183;28;20476;-79
2021/01/24 09:42:18;;;;;;;3.15;0.90;;;3.10;99.90;;;;;;4985003;28;20073;-78
2021/01/24 09:44:44;;;;;;;4.57;1.85;;;3.20;99.90;;;;;;4980852;28;20046;-78
2021/01/24 09:47:10;;;;;;;2.97;2.08;;;3.40;99.90;;;;;;4981642;28;20050;-77
2021/01/24 09:49:37;;;;;;;3.10;0.98;;;3.60;99.90;;;;;;4979510;28;20046;-78
2021/01/24 09:52:03;;;;;;;2.50;1.05;;;3.90;99.90;;;;;;4983978;28;20839;-78
2021/01/24 09:54:31;;;;;;;1.13;0.80;;;4.50;99.90;;;;;;4977730;28;20050;-78
2021/01/24 09:56:57;;;;;;;1.02;0.80;;;5.10;99.90;;;;;;4976718;28;20134;-80
2021/01/24 09:59:23;;;;;;;2.05;0.80;;;5.60;99.90;;;;;;4977904;28;20057;-81
2021/01/24 10:01:49;;;;;;;6.30;1.13;;;5.80;99.90;;;;;;4979560;28;20046;-80
2021/01/24 10:04:16;;;;;;;2.67;0.80;;;6.00;99.90;;;;;;4982984;28;20046;-77
2021/01/24 10:06:42;;;;;;;1.10;0.90;;;6.10;99.90;;;;;;4973165;28;20064;-78
2021/01/24 10:09:09;;;;;;;3.42;0.95;;;6.20;99.90;;;;;;4978911;28;20054;-78
2021/01/24 10:11:35;;;;;;;2.30;0.90;;;6.30;99.90;;;;;;4977916;28;20050;-77
2021/01/24 10:14:02;;;;;;;3.33;1.73;;;6.30;99.90;;;;;;4980259;28;20057;-77
2021/01/24 10:16:30;;;;;;;1.48;0.88;;;6.30;99.90;;;;;;4975203;28;20078;-77
2021/01/24 10:18:57;;;;;;;1.27;0.90;;;6.20;99.90;;;;;;4982845;28;20054;-77
2021/01/24 10:21:23;;;;;;;2.25;1.10;;;6.20;99.90;;;;;;4996894;28;20062;-79
2021/01/24 10:23:50;;;;;;;1.90;1.10;;;6.30;99.90;;;;;;4980544;28;20492;-78
2021/01/24 10:26:16;;;;;;;2.45;0.90;;;6.30;99.90;;;;;;4980869;28;20060;-78
2021/01/24 10:28:42;;;;;;;2.40;0.95;;;6.30;99.90;;;;;;4979527;28;20094;-78
2021/01/24 10:31:10;;;;;;;4.68;1.08;;;6.30;99.90;;;;;;4980828;28;20086;-78
2021/01/24 10:33:37;;;;;;;4.05;0.80;;;6.20;99.90;;;;;;4984269;28;20104;-77
2021/01/24 10:36:04;;;;;;;2.17;0.68;;;6.20;99.90;;;;;;4983807;28;20568;-79
2021/01/24 10:38:31;;;;;;;2.90;1.08;;;6.20;99.90;;;;;;4981700;28;20077;-78
2021/01/24 10:40:57;;;;;;;3.53;1.05;;;6.30;99.90;;;;;;4984740;28;20445;-78
2021/01/24 10:43:23;;;;;;;2.15;0.77;;;6.30;99.90;;;;;;4978075;28;20133;-79
2021/01/24 10:45:49;;;;;;;4.07;1.15;;;6.30;99.90;;;;;;4986681;28;20387;-79
2021/01/24 10:48:16;;;;;;;2.92;0.88;;;6.30;99.90;;;;;;4984410;28;20068;-78
2021/01/24 10:50:42;;;;;;;4.72;1.45;;;6.30;99.90;;;;;;4983055;28;20445;-79
2021/01/24 10:53:09;;;;;;;2.38;0.90;;;6.30;99.90;;;;;;4984073;28;20066;-78
2021/01/24 10:55:35;;;;;;;4.07;1.42;;;6.20;99.90;;;;;;4984481;28;20486;-78
2021/01/24 10:58:02;;;;;;;3.53;0.50;;;6.10;99.90;;;;;;4983404;28;20113;-79
2021/01/24 11:00:29;;;;;;;3.40;0.50;;;6.00;99.90;;;;;;4982388;28;20517;-78
2021/01/24 11:02:56;;;;;;;1.70;0.50;;;5.80;99.90;;;;;;4981827;28;20082;-78
2021/01/24 11:05:22;;;;;;;6.38;0.85;;;5.60;99.90;;;;;;4983043;28;20046;-78
2021/01/24 11:07:49;;;;;;;5.60;1.80;;;5.50;99.90;;;;;;4983598;28;20054;-78
2021/01/24 11:10:17;;;;;;;6.10;2.08;;;5.40;99.90;;;;;;4982608;28;20524;-78
2021/01/24 11:12:44;;;;;;;2.67;0.85;;;5.50;99.90;;;;;;4984555;28;20050;-78
2021/01/24 11:15:11;;;;;;;0.30;0.30;;;5.50;99.90;;;;;;4984175;28;20050;-78
2021/01/24 11:17:37;;;;;;;2.05;0.47;;;5.70;99.90;;;;;;4983575;28;20222;-78
2021/01/24 11:20:07;;;;;;;2.10;0.80;;;5.70;99.90;;;;;;4982184;28;20051;-78
2021/01/24 11:22:33;;;;;;;0.60;0.20;;;5.70;99.90;;;;;;4976663;28;20149;-78
2021/01/24 11:24:59;;;;;;;0.40;0.28;;;5.70;99.90;;;;;;4979679;28;20516;-78
2021/01/24 11:27:26;;;;;;;3.55;0.43;;;5.70;99.90;;;;;;4984100;28;20518;-78
2021/01/24 11:29:52;;;;;;;2.25;0.80;;;5.70;99.90;;;;;;4984890;28;20050;-77
2021/01/24 11:32:18;;;;;;;1.98;0.40;;;5.70;99.90;;;;;;4981754;28;20401;-78
2021/01/24 11:35:06;;;;;;;3.85;0.45;;;5.70;99.90;;;;;;4983783;28;20057;-78
2021/01/24 11:37:33;;;;;;;2.72;0.45;;;5.70;99.90;;;;;;4974912;28;20050;-78
2021/01/24 11:40:00;;;;;;;3.60;0.30;;;5.60;99.90;;;;;;4979268;28;20050;-78
2021/01/24 11:42:26;;;;;;;3.33;0.38;;;5.50;99.90;;;;;;4982556;28;20136;-78
2021/01/24 11:44:52;;;;;;;3.60;0.80;;;5.40;99.90;;;;;;4981993;28;20133;-78
2021/01/24 11:47:18;;;;;;;1.75;0.20;;;5.40;99.90;;;;;;4982652;28;20078;-79
2021/01/24 11:49:45;;;;;;;1.58;0.40;;;5.40;99.90;;;;;;4982586;28;20482;-78
2021/01/24 11:52:11;;;;;;;1.95;0.60;;;5.50;99.90;;;;;;4979463;28;20069;-79
2021/01/24 11:54:37;;;;;;;2.25;0.77;;;5.80;99.90;;;;;;4984040;28;20110;-79
2021/01/24 11:57:03;;;;;;;2.47;1.08;;;6.20;99.90;;;;;;4982848;28;20048;-77
2021/01/24 11:59:30;;;;;;;2.15;0.40;;;6.70;99.90;;;;;;4998493;28;20053;-79
2021/01/24 12:01:56;;;;;;;3.55;0.90;;;7.20;99.90;;;;;;4976293;28;20129;-79
2021/01/24 12:04:23;;;;;;;4.22;0.40;;;7.40;99.90;;;;;;4984311;28;20054;-78
2021/01/24 12:06:49;;;;;;;1.08;0.30;;;7.50;99.90;;;;;;4984819;28;20541;-78
2021/01/24 12:09:16;;;;;;;1.65;0.57;;;7.60;99.90;;;;;;4979782;28;20060;-78
2021/01/24 12:11:42;;;;;;;2.85;0.60;;;7.80;99.90;;;;;;4975851;28;20117;-79
2021/01/24 12:14:08;;;;;;;2.05;1.20;;;8.00;99.90;;;;;;4983757;28;20494;-79
2021/01/24 12:16:34;;;;;;;1.27;0.65;;;8.00;99.90;;;;;;4984370;28;20468;-79
2021/01/24 12:19:01;;;;;;;2.22;0.68;;;8.00;99.90;;;;;;4982716;28;20066;-78
2021/01/24 12:21:27;;;;;;;3.05;0.93;;;7.90;99.90;;;;;;4982344;28;20054;-79
2021/01/24 12:23:53;;;;;;;4.75;0.90;;;7.90;99.90;;;;;;4985576;28;20050;-79
2021/01/24 12:26:19;;;;;;;6.75;1.30;;;7.70;99.90;;;;;;4984145;28;20070;-79
2021/01/24 12:28:45;;;;;;;2.95;0.43;;;7.70;99.90;;;;;;4984541;28;20137;-79
2021/01/24 12:31:12;;;;;;;1.35;0.47;;;7.60;99.90;;;;;;4982280;28;20058;-79
2021/01/24 12:33:38;;;;;;;5.10;1.23;;;7.60;99.90;;;;;;4982727;28;20585;-79
2021/01/24 12:36:05;;;;;;;2.15;0.93;;;7.90;99.90;;;;;;4977900;28;20050;-79
2021/01/24 12:38:31;;;;;;;1.60;0.60;;;8.10;99.90;;;;;;4980622;28;21039;-79
2021/01/24 12:40:57;;;;;;;3.47;0.70;;;8.40;99.90;;;;;;4971983;28;20068;-78
2021/01/24 12:43:23;;;;;;;0.98;0.60;;;8.60;99.90;;;;;;4981040;28;20054;-77
2021/01/24 12:45:49;;;;;;;2.47;0.50;;;8.70;99.90;;;;;;4977785;28;20596;-78
2021/01/24 12:48:16;;;;;;;3.05;0.88;;;8.70;99.90;;;;;;4975655;28;20050;-77
2021/01/24 12:50:42;;;;;;;5.53;0.68;;;8.70;99.90;;;;;;4974984;28;20065;-77
2021/01/24 12:53:08;;;;;;;0.40;0.32;;;8.40;99.90;;;;;;4972377;28;20050;-77
2021/01/24 12:55:35;;;;;;;2.95;0.73;;;8.20;99.90;;;;;;4978510;28;20050;-78
2021/01/24 12:58:01;;;;;;;4.97;0.98;;;7.90;99.90;;;;;;4972630;28;20046;-78
2021/01/24 13:00:27;;;;;;;3.38;0.65;;;7.90;99.90;;;;;;4984549;28;20046;-78